Terminal Aerodrome Forecast
Issued by NWS Knoxville/Tri Cities, TN

Home | Current Version | Previous Version | Text Only | Print | Product List | Glossary On
Versions: 1 2 3 4 5 6 7 8 9 10 11 12 13 14 15 16 17 18 19 20 21 22 23 24 25 26 27 28 29 30 31 32 33 34 35 36 37 38 39 40 41 42 43 44 45 46 47 48 49 50
000
FTUS44 KMRX 281727
TAFCHA
TAF
KCHA 281727Z 2818/2918 12006KT P6SM VCTS SCT015 BKN035CB OVC070
     FM290200 VRB02KT P6SM VCSH SCT040 BKN080
     FM290800 00000KT P6SM SCT040 OVC100
     FM291400 VRB03KT P6SM VCSH BKN040 OVC120=

USA.gov is the U.S. government's official web portal to all federal, state and local government web resources and services.